Time;durP1;ratioP1;P1;durP2;ratioP2;P2;SDS_P1;SDS_P2;PMS_P1;PMS_P2;Temp;Humidity;BMP_temperature;BMP_pressure;BME280_temperature;BME280_humidity;BME280_pressure;Samples;Min_cycle;Max_cycle;Signal;HPM_P1;HPM_P2
2023/07/09 00:01:59;;;;;;;;;9.67;9.33;;;;;27.17;52.67;101390.84;5015552;28;45330;-40
2023/07/09 00:04:25;;;;;;;;;10.33;9.00;;;;;27.13;52.63;101390.34;5015397;28;62764;-40
2023/07/09 00:06:51;;;;;;;;;12.00;11.00;;;;;27.10;53.08;101384.38;5012459;28;45606;-40
2023/07/09 00:09:20;;;;;;;;;8.00;8.00;;;;;27.07;53.57;101391.88;5017517;28;45440;-40
2023/07/09 00:11:46;;;;;;;;;12.67;11.67;;;;;27.05;52.37;101387.59;5013078;28;45396;-40
2023/07/09 00:14:15;;;;;;;;;8.33;7.00;;;;;26.98;53.40;101383.88;5017777;28;45353;-40
2023/07/09 00:16:41;;;;;;;;;8.00;8.00;;;;;26.91;54.18;101387.28;5015616;28;45618;-40
2023/07/09 00:19:16;;;;;;;;;11.00;9.00;;;;;26.89;53.55;101396.66;5015162;28;46213;-40
2023/07/09 00:21:42;;;;;;;;;8.33;8.33;;;;;26.86;54.65;101392.38;5017545;28;45738;-40
2023/07/09 00:24:10;;;;;;;;;13.00;9.33;;;;;26.83;54.52;101395.47;5015544;28;45424;-40
2023/07/09 00:26:37;;;;;;;;;9.00;9.00;;;;;26.82;53.91;101396.47;5011040;28;45474;-40
2023/07/09 00:29:03;;;;;;;;;11.00;11.00;;;;;26.76;54.59;101396.31;5017559;28;46965;-40
2023/07/09 00:31:28;;;;;;;;;12.00;10.00;;;;;26.69;54.75;101396.94;5015281;28;45366;-40
2023/07/09 00:33:55;;;;;;;;;10.00;10.00;;;;;26.66;54.72;101399.16;5015756;28;59604;-40
2023/07/09 00:36:28;;;;;;;;;10.67;9.00;;;;;26.63;54.74;101403.06;5006522;28;45365;-40
2023/07/09 00:38:54;;;;;;;;;8.00;6.67;;;;;26.56;54.22;101404.78;5014978;28;46231;-40
2023/07/09 00:41:22;;;;;;;;;11.00;10.00;;;;;26.50;54.86;101419.91;5011985;28;45566;-40
2023/07/09 00:43:49;;;;;;;;;10.67;9.33;;;;;26.45;55.21;101421.44;5027427;28;45409;-40
2023/07/09 00:46:22;;;;;;;;;10.00;8.00;;;;;26.42;55.27;101414.44;5017208;28;45489;-40
2023/07/09 00:48:50;;;;;;;;;9.33;9.00;;;;;26.37;56.11;101423.16;5013769;28;46212;-40
2023/07/09 00:51:20;;;;;;;;;11.00;10.00;;;;;26.34;56.61;101418.00;5016703;28;45459;-40
2023/07/09 00:53:46;;;;;;;;;12.00;9.33;;;;;26.31;56.24;101420.22;5016917;28;45440;-39
2023/07/09 00:56:14;;;;;;;;;10.50;9.00;;;;;26.27;56.39;101421.56;5016528;28;45309;-39
2023/07/09 00:58:42;;;;;;;;;8.00;8.00;;;;;26.25;56.84;101424.47;4996955;28;46823;-40
2023/07/09 01:01:11;;;;;;;;;12.00;10.67;;;;;26.22;56.20;101422.91;5016022;28;45396;-40
2023/07/09 01:03:42;;;;;;;;;11.00;9.00;;;;;26.19;56.74;101422.38;5025877;28;45431;-40
2023/07/09 01:06:08;;;;;;;;;10.67;10.00;;;;;26.14;57.47;101427.47;5014800;28;45549;-39
2023/07/09 01:08:35;;;;;;;;;9.67;9.33;;;;;26.10;56.43;101426.97;5017509;28;46472;-40
2023/07/09 01:11:00;;;;;;;;;11.00;11.00;;;;;26.08;57.83;101429.00;5017104;28;45890;-40
2023/07/09 01:13:32;;;;;;;;;12.00;9.00;;;;;26.08;57.42;101434.44;5017936;28;45598;-39
2023/07/09 01:15:58;;;;;;;;;9.33;9.33;;;;;26.05;57.51;101432.91;5014650;28;45476;-39
2023/07/09 01:18:24;;;;;;;;;9.67;9.33;;;;;26.05;57.86;101434.78;5016156;28;46100;-39
2023/07/09 01:20:52;;;;;;;;;14.67;9.33;;;;;26.02;57.63;101438.66;5019804;28;45610;-40
2023/07/09 01:23:18;;;;;;;;;10.00;9.00;;;;;25.99;57.92;101441.69;5010317;28;45398;-40
2023/07/09 01:25:52;;;;;;;;;8.67;8.33;;;;;25.96;58.37;101441.16;5012382;28;46821;-39
2023/07/09 01:28:18;;;;;;;;;8.00;8.00;;;;;25.93;58.92;101447.81;5011775;28;46307;-40
2023/07/09 01:30:43;;;;;;;;;9.67;9.67;;;;;25.90;58.02;101446.25;5018085;28;45886;-40
2023/07/09 01:33:09;;;;;;;;;9.00;9.00;;;;;25.89;58.90;101454.56;5013757;28;66788;-40
2023/07/09 01:35:37;;;;;;;;;8.00;8.00;;;;;25.86;58.73;101453.03;5024419;28;45465;-40
2023/07/09 01:38:03;;;;;;;;;10.00;9.33;;;;;25.85;58.94;101455.91;5017391;28;45398;-39
2023/07/09 01:40:29;;;;;;;;;9.67;9.67;;;;;25.83;58.70;101457.97;5011185;28;45457;-40
2023/07/09 01:42:57;;;;;;;;;10.00;8.67;;;;;25.81;58.86;101457.25;5018247;28;45741;-39
2023/07/09 01:45:24;;;;;;;;;12.00;11.00;;;;;25.78;59.21;101463.88;5011308;28;45534;-39
2023/07/09 01:47:49;;;;;;;;;11.00;11.00;;;;;25.76;59.80;101453.16;5011379;28;46976;-40
2023/07/09 01:50:18;;;;;;;;;10.67;10.00;;;;;25.75;59.27;101458.78;5019551;28;45388;-40
2023/07/09 01:52:44;;;;;;;;;11.33;9.00;;;;;25.73;58.94;101464.34;5022247;28;45921;-40
2023/07/09 01:55:11;;;;;;;;;10.33;10.33;;;;;25.70;59.88;101469.28;5016988;28;45538;-39
2023/07/09 01:57:36;;;;;;;;;16.67;10.67;;;;;25.68;59.50;101469.47;5015240;28;47175;-40
2023/07/09 02:00:20;;;;;;;;;13.00;11.00;;;;;25.65;59.06;101463.47;5029289;28;58668;-39
2023/07/09 02:02:46;;;;;;;;;11.67;11.67;;;;;25.63;59.55;101465.50;5009450;28;66683;-40
2023/07/09 02:05:14;;;;;;;;;10.67;10.00;;;;;25.59;60.14;101467.66;5016204;28;45279;-40
2023/07/09 02:07:40;;;;;;;;;14.00;11.33;;;;;25.56;60.11;101465.28;5015486;28;46164;-40
2023/07/09 02:10:06;;;;;;;;;12.33;12.33;;;;;25.50;59.99;101458.59;5015785;28;45746;-40
2023/07/09 02:12:31;;;;;;;;;15.00;12.67;;;;;25.47;61.04;101463.50;5022765;28;45478;-40
2023/07/09 02:14:57;;;;;;;;;12.33;12.33;;;;;25.46;60.94;101465.38;5015398;28;69815;-39
2023/07/09 02:17:22;;;;;;;;;19.67;18.67;;;;;25.45;60.34;101465.53;5015694;28;72391;-39
2023/07/09 02:19:47;;;;;;;;;20.67;17.67;;;;;25.41;61.33;101459.56;5010950;28;65687;-39
2023/07/09 02:22:13;;;;;;;;;26.00;19.00;;;;;25.38;61.06;101462.59;5018523;28;58852;-39
2023/07/09 02:24:39;;;;;;;;;20.00;16.67;;;;;25.37;61.66;101469.91;5022689;28;45408;-39
2023/07/09 02:27:06;;;;;;;;;23.00;20.67;;;;;25.35;61.43;101460.19;5014236;28;46328;-40
2023/07/09 02:29:31;;;;;;;;;22.33;22.00;;;;;25.33;61.72;101473.94;5018719;28;45417;-39
2023/07/09 02:31:58;;;;;;;;;20.00;19.00;;;;;25.30;61.43;101467.94;5011493;28;45457;-40
2023/07/09 02:34:27;;;;;;;;;20.33;18.67;;;;;25.26;60.94;101476.41;5016408;28;45285;-40
2023/07/09 02:36:54;;;;;;;;;15.67;15.67;;;;;25.21;61.24;101467.88;5013429;28;46381;-40
2023/07/09 02:39:20;;;;;;;;;15.33;13.33;;;;;25.15;61.58;101471.22;5010161;28;45341;-39
2023/07/09 02:41:45;;;;;;;;;15.00;13.33;;;;;25.12;62.26;101466.06;5015390;28;45336;-39
2023/07/09 02:44:11;;;;;;;;;13.00;13.00;;;;;25.11;61.33;101469.84;5015358;28;45440;-39
2023/07/09 02:46:36;;;;;;;;;12.67;11.00;;;;;25.08;62.46;101461.97;5017356;28;72695;-39
2023/07/09 02:49:04;;;;;;;;;13.00;11.00;;;;;25.06;62.25;101469.44;5016723;28;46589;-39
2023/07/09 02:51:29;;;;;;;;;14.00;14.00;;;;;25.04;62.05;101469.56;5005185;28;45454;-40
2023/07/09 02:53:57;;;;;;;;;17.00;13.33;;;;;25.02;63.21;101470.78;5022996;28;45321;-39
2023/07/09 02:56:22;;;;;;;;;14.00;11.33;;;;;24.99;62.87;101465.63;5011706;28;45483;-40
2023/07/09 02:58:48;;;;;;;;;12.67;10.67;;;;;24.98;62.44;101467.50;5010098;28;45448;-39
2023/07/09 03:01:13;;;;;;;;;14.00;11.67;;;;;24.94;63.56;101464.22;5018980;28;45427;-39
2023/07/09 03:03:39;;;;;;;;;12.00;12.00;;;;;24.91;62.66;101469.13;5020112;28;70409;-39
2023/07/09 03:06:05;;;;;;;;;9.00;9.00;;;;;24.87;62.70;101468.56;5016970;28;45423;-39
2023/07/09 03:08:31;;;;;;;;;13.00;11.00;;;;;24.85;62.76;101473.31;5013602;28;45484;-39
2023/07/09 03:10:57;;;;;;;;;12.00;11.33;;;;;24.81;62.49;101471.94;5017873;28;45597;-40
2023/07/09 03:13:22;;;;;;;;;12.67;11.67;;;;;24.76;63.35;101488.69;5014045;28;45501;-39
2023/07/09 03:15:57;;;;;;;;;16.00;12.00;;;;;24.74;63.00;101498.00;5011199;28;74796;-39
2023/07/09 03:18:23;;;;;;;;;9.33;8.00;;;;;24.69;64.08;101503.94;5007574;28;45289;-40
2023/07/09 03:20:48;;;;;;;;;10.00;10.00;;;;;24.67;63.41;101502.38;5017801;28;45439;-39
2023/07/09 03:23:14;;;;;;;;;12.00;12.00;;;;;24.64;64.24;101505.38;5017470;28;65481;-40
2023/07/09 03:25:43;;;;;;;;;13.33;11.00;;;;;24.60;64.28;101497.50;5015580;28;76696;-39
2023/07/09 03:28:08;;;;;;;;;10.00;10.00;;;;;24.59;63.87;101500.38;5015432;28;45431;-40
2023/07/09 03:30:34;;;;;;;;;13.33;11.33;;;;;24.56;63.62;101497.94;5014573;28;45407;-39
2023/07/09 03:33:00;;;;;;;;;10.67;10.67;;;;;24.53;64.12;101495.53;5013272;28;50288;-39
2023/07/09 03:35:26;;;;;;;;;10.00;9.33;;;;;24.50;64.71;101493.97;5010652;28;47504;-39
2023/07/09 03:37:52;;;;;;;;;11.67;11.67;;;;;24.49;64.15;101497.69;5006461;28;67522;-39
2023/07/09 03:40:22;;;;;;;;;10.33;10.33;;;;;24.45;64.01;101499.00;5017650;28;45377;-40
2023/07/09 03:42:48;;;;;;;;;10.67;10.67;;;;;24.43;64.58;101504.59;5007386;28;45569;-39
2023/07/09 03:45:13;;;;;;;;;11.00;11.00;;;;;24.40;63.95;101504.03;5013299;28;45424;-40
2023/07/09 03:47:38;;;;;;;;;12.67;11.33;;;;;24.38;64.88;101508.75;5016176;28;45433;-39
2023/07/09 03:50:06;;;;;;;;;11.67;10.33;;;;;24.37;64.84;101501.63;5007714;28;65207;-40
2023/07/09 03:52:32;;;;;;;;;12.00;11.33;;;;;24.37;64.65;101499.75;5016309;28;45462;-39
2023/07/09 03:54:57;;;;;;;;;12.00;10.67;;;;;24.36;65.03;101495.31;5013160;28;72818;-39
2023/07/09 03:57:23;;;;;;;;;9.67;9.67;;;;;24.34;64.92;101493.75;5014779;28;71008;-39
2023/07/09 03:59:48;;;;;;;;;13.33;11.00;;;;;24.34;65.46;101493.75;5014518;28;45580;-39
2023/07/09 04:02:13;;;;;;;;;10.67;10.67;;;;;24.32;64.96;101490.34;5014038;28;67360;-39
2023/07/09 04:04:39;;;;;;;;;14.33;12.00;;;;;24.28;65.39;101496.06;5016011;28;45950;-40
2023/07/09 04:07:04;;;;;;;;;8.67;8.00;;;;;24.28;64.43;101495.22;5013518;28;68774;-39
2023/07/09 04:09:29;;;;;;;;;13.33;10.00;;;;;24.27;65.05;101496.22;5017028;28;45370;-39
2023/07/09 04:11:55;;;;;;;;;13.33;10.67;;;;;24.27;65.55;101497.09;5011970;28;45554;-39
2023/07/09 04:14:20;;;;;;;;;13.00;10.67;;;;;24.28;64.89;101501.50;5013905;28;73967;-39
2023/07/09 04:16:45;;;;;;;;;11.00;10.00;;;;;24.29;64.62;101502.38;5015710;28;67922;-39
2023/07/09 04:19:11;;;;;;;;;12.33;12.33;;;;;24.31;65.04;101507.66;5016181;28;63842;-39
2023/07/09 04:21:36;;;;;;;;;13.67;12.00;;;;;24.33;64.74;101508.38;5016643;28;69374;-39
2023/07/09 04:24:01;;;;;;;;;11.67;10.00;;;;;24.35;64.47;101511.78;5015858;28;45587;-40
2023/07/09 04:26:27;;;;;;;;;12.00;11.00;;;;;24.36;64.55;101514.34;5014967;28;45742;-39
2023/07/09 04:28:52;;;;;;;;;10.67;10.67;;;;;24.38;64.06;101506.03;5012314;28;45845;-39
2023/07/09 04:31:18;;;;;;;;;10.67;9.33;;;;;24.39;64.40;101505.91;5015220;28;68340;-39
2023/07/09 04:33:45;;;;;;;;;10.00;8.67;;;;;24.41;63.55;101508.47;5016164;28;46095;-39
2023/07/09 04:36:12;;;;;;;;;11.00;9.00;;;;;24.43;63.78;101498.28;5006813;28;45361;-40
2023/07/09 04:38:38;;;;;;;;;9.00;9.00;;;;;24.46;63.91;101500.72;5004826;28;45561;-39
2023/07/09 04:41:03;;;;;;;;;8.00;8.00;;;;;24.49;63.86;101494.97;5016201;28;45698;-39
2023/07/09 04:43:29;;;;;;;;;9.00;9.00;;;;;24.52;62.89;101497.41;5015512;28;47052;-39
2023/07/09 04:45:54;;;;;;;;;9.00;8.67;;;;;24.56;63.38;101498.81;5017247;28;45245;-39
2023/07/09 04:48:20;;;;;;;;;8.00;8.00;;;;;24.61;62.57;101495.63;5019714;28;45367;-39
2023/07/09 04:50:49;;;;;;;;;10.67;10.67;;;;;24.65;62.57;101493.50;5016713;28;59742;-39
2023/07/09 04:53:15;;;;;;;;;10.33;10.00;;;;;24.69;62.31;101500.34;5011079;28;47179;-39
2023/07/09 04:55:40;;;;;;;;;8.00;8.00;;;;;24.74;62.36;101489.84;5020720;28;45487;-39
2023/07/09 04:58:05;;;;;;;;;11.00;9.33;;;;;24.76;61.77;101485.97;5016474;28;66791;-39
2023/07/09 05:00:31;;;;;;;;;9.00;9.00;;;;;24.82;62.07;101489.94;5012359;28;69625;-39
2023/07/09 05:02:56;;;;;;;;;10.67;10.00;;;;;24.87;61.94;101478.59;5016434;28;74474;-40
2023/07/09 05:05:21;;;;;;;;;9.00;9.00;;;;;24.91;61.44;101478.16;5020145;28;45427;-39
2023/07/09 05:07:47;;;;;;;;;8.33;8.33;;;;;24.97;61.18;101478.53;5018271;28;67064;-40
2023/07/09 05:10:13;;;;;;;;;9.67;9.67;;;;;25.02;61.08;101487.09;5018146;28;67482;-39
2023/07/09 05:12:51;;;;;;;;;11.00;7.67;;;;;25.07;60.34;101488.34;5015639;28;45405;-39
2023/07/09 05:15:18;;;;;;;;;12.00;8.67;;;;;25.16;60.31;101478.38;5017208;28;45316;-39
2023/07/09 05:17:43;;;;;;;;;11.67;9.00;;;;;25.19;59.98;101469.91;5016469;28;45489;-39
2023/07/09 05:20:09;;;;;;;;;9.00;9.00;;;;;25.23;59.21;101465.00;5015496;28;45998;-40
2023/07/09 05:22:34;;;;;;;;;9.00;8.33;;;;;25.27;58.97;101469.94;5015463;28;45549;-40
2023/07/09 05:24:59;;;;;;;;;8.33;8.33;;;;;25.34;59.57;101486.50;5004966;28;71671;-40
2023/07/09 05:27:25;;;;;;;;;8.00;8.00;;;;;25.41;59.08;101490.34;5013575;28;69453;-40
2023/07/09 05:29:50;;;;;;;;;10.00;8.00;;;;;25.49;58.20;101497.75;5010936;28;68801;-40
2023/07/09 05:32:15;;;;;;;;;10.33;8.33;;;;;25.55;58.03;101483.50;5009810;28;70645;-39
2023/07/09 05:34:41;;;;;;;;;10.00;9.33;;;;;25.63;57.17;101492.72;5013920;28;45260;-40
2023/07/09 05:37:06;;;;;;;;;9.33;7.67;;;;;25.71;57.63;101492.81;5020117;28;64922;-40
2023/07/09 05:39:31;;;;;;;;;8.00;7.67;;;;;25.81;56.72;101487.22;5020168;28;69318;-40
2023/07/09 05:41:57;;;;;;;;;10.00;10.00;;;;;25.88;56.71;101489.16;5011226;28;73866;-40
2023/07/09 05:44:22;;;;;;;;;9.00;9.00;;;;;26.00;56.37;101507.97;5016132;28;70164;-40
2023/07/09 05:46:47;;;;;;;;;8.00;8.00;;;;;26.15;55.98;101498.19;5015649;28;66350;-40
2023/07/09 05:49:13;;;;;;;;;8.00;8.00;;;;;26.30;55.64;101501.16;5011246;28;67346;-40
2023/07/09 05:51:38;;;;;;;;;8.00;8.00;;;;;26.44;55.02;101499.69;5013304;28;72134;-40
2023/07/09 05:54:03;;;;;;;;;10.67;9.00;;;;;26.57;54.65;101491.88;5017204;28;70558;-40
2023/07/09 05:56:29;;;;;;;;;7.50;7.50;;;;;26.74;54.17;101492.81;5011197;28;45453;-40
2023/07/09 05:58:55;;;;;;;;;9.00;8.00;;;;;26.88;53.25;101495.91;5015291;28;45427;-40
2023/07/09 06:01:20;;;;;;;;;8.67;8.33;;;;;26.97;53.03;101500.34;5013798;28;47220;-39
2023/07/09 06:03:46;;;;;;;;;10.33;9.33;;;;;27.11;53.44;101492.53;5009512;28;71803;-39
2023/07/09 06:06:12;;;;;;;;;7.25;7.25;;;;;27.23;53.11;101483.84;5013946;28;45407;-40
2023/07/09 06:08:38;;;;;;;;;7.00;7.00;;;;;27.34;52.43;101484.50;5018521;28;45485;-40
2023/07/09 06:11:03;;;;;;;;;5.75;5.75;;;;;27.45;52.45;101486.09;5018266;28;46419;-39
2023/07/09 06:13:30;;;;;;;;;6.00;5.00;;;;;27.60;51.98;101475.31;5017729;28;45506;-40
2023/07/09 06:15:56;;;;;;;;;11.00;10.00;;;;;27.77;51.88;101474.28;5012703;28;45617;-40
2023/07/09 06:18:22;;;;;;;;;9.00;7.67;;;;;27.89;51.03;101478.31;5014378;28;45532;-40
2023/07/09 06:20:54;;;;;;;;;8.00;8.00;;;;;28.00;50.47;101488.06;5015498;28;45455;-39
2023/07/09 06:23:19;;;;;;;;;8.67;8.67;;;;;28.04;49.95;101494.91;5017529;28;45529;-40
2023/07/09 06:25:47;;;;;;;;;7.00;6.33;;;;;28.07;50.00;101496.44;5017602;28;64049;-40
2023/07/09 06:28:14;;;;;;;;;9.00;7.67;;;;;27.99;48.97;101496.41;5018562;28;45861;-40
2023/07/09 06:30:40;;;;;;;;;8.25;8.25;;;;;27.86;49.13;101511.47;5018763;28;46117;-39
2023/07/09 06:33:05;;;;;;;;;8.50;6.75;;;;;27.73;49.33;101527.56;5010286;28;71694;-39
2023/07/09 06:35:30;;;;;;;;;8.33;7.33;;;;;27.63;49.61;101535.91;5015597;28;45728;-40
2023/07/09 06:37:56;;;;;;;;;6.00;5.00;;;;;27.62;48.94;101536.09;5013391;28;70447;-44
2023/07/09 06:40:21;;;;;;;;;6.25;6.00;;;;;27.66;48.85;101540.19;5017847;28;72587;-40
2023/07/09 06:42:46;;;;;;;;;11.00;9.00;;;;;27.69;49.78;101539.84;5001956;28;68338;-40
2023/07/09 06:45:12;;;;;;;;;7.67;7.67;;;;;27.64;50.52;101540.38;5001184;28;67857;-40
2023/07/09 06:47:37;;;;;;;;;9.00;9.00;;;;;27.79;50.24;101540.50;4999778;28;69062;-40
2023/07/09 06:50:02;;;;;;;;;9.33;8.33;;;;;28.15;50.13;101544.78;5003091;28;72930;-40
2023/07/09 06:52:28;;;;;;;;;13.33;10.00;;;;;28.44;49.49;101548.78;5018810;28;45455;-40
2023/07/09 06:54:53;;;;;;;;;10.00;9.00;;;;;28.61;49.27;101544.91;5010223;28;66406;-40
2023/07/09 06:57:18;;;;;;;;;8.00;7.67;;;;;28.59;48.61;101557.06;5007293;28;45526;-40
2023/07/09 06:59:44;;;;;;;;;11.00;8.00;;;;;28.41;48.82;101560.91;5015853;28;74476;-40
2023/07/09 07:02:09;;;;;;;;;15.00;10.00;;;;;28.25;49.36;101563.69;5015291;28;45385;-40
2023/07/09 07:04:34;;;;;;;;;9.67;9.67;;;;;28.12;48.98;101556.03;5030604;28;45625;-40
2023/07/09 07:07:00;;;;;;;;;7.33;7.33;;;;;28.05;49.54;101559.47;5016619;28;67415;-40
2023/07/09 07:09:25;;;;;;;;;7.33;6.00;;;;;28.27;49.49;101573.44;5016340;28;75253;-40
2023/07/09 07:11:50;;;;;;;;;9.67;9.67;;;;;28.73;49.23;101571.94;5013203;28;72256;-39
2023/07/09 07:14:16;;;;;;;;;10.00;10.00;;;;;28.99;48.14;101572.44;5015435;28;45980;-40
2023/07/09 07:16:41;;;;;;;;;8.33;8.33;;;;;29.12;47.59;101558.16;5018098;28;68800;-40
2023/07/09 07:19:06;;;;;;;;;7.00;7.00;;;;;29.31;48.01;101545.09;5016065;28;73990;-40
2023/07/09 07:21:32;;;;;;;;;8.50;7.75;;;;;30.49;46.83;101531.75;5002941;28;45360;-40
2023/07/09 07:23:57;;;;;;;;;7.00;7.00;;;;;31.84;44.41;101541.22;5014855;28;45512;-40
2023/07/09 07:26:23;;;;;;;;;7.00;7.00;;;;;31.70;42.62;101546.81;5016792;28;45289;-40
2023/07/09 07:28:49;;;;;;;;;9.00;7.00;;;;;31.20;42.52;101552.25;5018839;28;45422;-40
2023/07/09 07:31:14;;;;;;;;;8.00;7.00;;;;;30.94;43.60;101550.91;5018098;28;45495;-40
2023/07/09 07:33:41;;;;;;;;;9.00;9.00;;;;;30.75;43.49;101555.09;5007822;28;45590;-40
2023/07/09 07:36:07;;;;;;;;;8.33;6.33;;;;;30.34;43.45;101561.94;5016164;28;45362;-40
2023/07/09 07:38:32;;;;;;;;;7.00;6.33;;;;;29.89;44.23;101572.00;5011567;28;45774;-40
2023/07/09 07:40:58;;;;;;;;;7.00;7.00;;;;;29.46;44.39;101567.88;5016491;28;70333;-40
2023/07/09 07:43:23;;;;;;;;;8.33;6.67;;;;;29.06;45.67;101580.81;5014163;28;65794;-40
2023/07/09 07:45:49;;;;;;;;;8.00;6.67;;;;;28.74;45.46;101590.91;5012467;28;67572;-40
2023/07/09 07:48:14;;;;;;;;;10.00;8.00;;;;;28.46;46.61;101594.06;5013498;28;53404;-43
2023/07/09 07:50:40;;;;;;;;;8.33;8.33;;;;;28.17;46.17;101600.97;5016447;28;45423;-44
2023/07/09 07:53:07;;;;;;;;;7.33;7.00;;;;;27.88;46.47;101618.72;5016662;28;45483;-43
2023/07/09 07:55:33;;;;;;;;;7.33;6.67;;;;;27.61;47.38;101635.47;5011649;28;45558;-43
2023/07/09 07:57:59;;;;;;;;;7.00;7.00;;;;;27.35;48.00;101650.06;5008914;28;45412;-43
2023/07/09 08:00:25;;;;;;;;;8.00;7.00;;;;;27.13;48.54;101662.47;5012881;28;45745;-45
2023/07/09 08:02:50;;;;;;;;;8.33;6.67;;;;;26.92;48.66;101658.28;5016179;28;65176;-43
2023/07/09 08:05:16;;;;;;;;;9.00;7.00;;;;;26.78;49.69;101656.19;5014363;28;45511;-43
2023/07/09 08:07:41;;;;;;;;;9.33;7.00;;;;;26.65;48.95;101646.53;5010372;28;69132;-44
2023/07/09 08:10:07;;;;;;;;;7.67;7.67;;;;;26.50;49.69;101632.63;5016171;28;45431;-44
2023/07/09 08:12:32;;;;;;;;;5.33;5.33;;;;;26.37;50.21;101624.03;5017467;28;45497;-44
2023/07/09 08:14:58;;;;;;;;;8.00;7.00;;;;;26.28;50.91;101605.94;5016662;28;67931;-43
2023/07/09 08:17:23;;;;;;;;;7.67;5.67;;;;;26.21;50.63;101603.84;5012051;28;74344;-45
2023/07/09 08:19:51;;;;;;;;;10.33;9.33;;;;;26.17;50.70;101607.06;5006445;28;69619;-45
2023/07/09 08:22:17;;;;;;;;;12.00;10.33;;;;;26.12;51.85;101631.22;5016599;28;45409;-47
2023/07/09 08:24:42;;;;;;;;;8.33;7.67;;;;;26.07;51.34;101654.38;5000701;28;45357;-42
2023/07/09 08:27:09;;;;;;;;;8.67;8.67;;;;;26.06;51.93;101643.59;4998985;28;46866;-42
2023/07/09 08:29:34;;;;;;;;;9.67;8.33;;;;;26.06;52.24;101629.97;5017469;28;45919;-44
2023/07/09 08:32:00;;;;;;;;;8.67;8.67;;;;;26.04;52.70;101623.84;5008202;28;45433;-42
2023/07/09 08:34:25;;;;;;;;;9.00;7.33;;;;;26.01;53.37;101619.53;5015216;28;70372;-43
2023/07/09 08:36:50;;;;;;;;;7.67;7.00;;;;;26.05;52.58;101618.22;5015935;28;75881;-43
2023/07/09 08:39:16;;;;;;;;;10.33;9.00;;;;;26.13;52.07;101619.31;5014820;28;55490;-43
2023/07/09 08:41:59;;;;;;;;;14.33;12.00;;;;;26.29;52.61;101604.94;5009740;28;45420;-46
2023/07/09 08:44:59;;;;;;;;;11.33;9.67;;;;;26.52;52.66;101610.69;5003141;28;45346;-44
2023/07/09 08:47:28;;;;;;;;;12.33;12.00;;;;;26.72;53.09;101624.94;5015105;28;45607;-43
2023/07/09 08:49:58;;;;;;;;;11.33;11.33;;;;;26.83;52.39;101623.78;5017773;28;45409;-42
2023/07/09 08:52:42;;;;;;;;;9.67;9.00;;;;;26.84;52.98;101614.59;5013652;28;45896;-45
2023/07/09 08:55:28;;;;;;;;;14.33;11.33;;;;;26.87;52.30;101608.81;5012938;28;46070;-44
2023/07/09 08:58:01;;;;;;;;;8.67;8.67;;;;;26.88;53.12;101622.31;5011360;28;47035;-46
2023/07/09 09:00:57;;;;;;;;;8.67;8.67;;;;;26.81;53.18;101628.59;5013673;28;45413;-44
2023/07/09 09:03:43;;;;;;;;;13.00;10.00;;;;;26.65;52.97;101641.09;5015387;28;45363;-43
2023/07/09 09:06:13;;;;;;;;;9.67;9.00;;;;;26.53;53.26;101639.66;5013964;28;45522;-45
2023/07/09 09:09:01;;;;;;;;;9.00;8.67;;;;;26.51;53.21;101650.72;5015162;28;45729;-44
2023/07/09 09:11:48;;;;;;;;;11.00;11.00;;;;;26.53;53.14;101645.09;5012804;28;45656;-44
2023/07/09 09:14:35;;;;;;;;;10.00;8.33;;;;;26.56;54.08;101642.91;5012552;28;45834;-44
2023/07/09 09:17:03;;;;;;;;;7.67;7.67;;;;;26.57;53.15;101635.59;5019006;28;45455;-44
2023/07/09 09:19:37;;;;;;;;;10.50;9.75;;;;;26.49;52.96;101628.22;5018957;28;45426;-45
2023/07/09 09:22:08;;;;;;;;;9.00;9.00;;;;;26.41;53.26;101618.13;5004467;28;45273;-43
2023/07/09 09:24:40;;;;;;;;;9.33;8.00;;;;;26.31;53.55;101622.84;5011656;28;45348;-44
2023/07/09 09:27:08;;;;;;;;;10.00;8.33;;;;;26.23;53.62;101644.56;5016126;28;45549;-43
2023/07/09 09:29:33;;;;;;;;;8.00;6.75;;;;;26.12;53.61;101664.78;5010274;28;45701;-45
2023/07/09 09:32:15;;;;;;;;;9.75;9.00;;;;;26.06;53.98;101679.03;5010165;28;45689;-44
2023/07/09 09:34:40;;;;;;;;;10.00;8.50;;;;;26.09;54.26;101687.75;5014151;28;45486;-44
2023/07/09 09:37:11;;;;;;;;;8.67;7.33;;;;;26.17;54.11;101677.94;5018649;28;68780;-44
2023/07/09 09:39:38;;;;;;;;;10.00;10.00;;;;;26.26;54.16;101674.25;5015374;28;47166;-44
2023/07/09 09:42:10;;;;;;;;;13.00;10.67;;;;;26.33;53.95;101685.38;5015694;28;45253;-43
2023/07/09 09:44:36;;;;;;;;;11.00;8.00;;;;;26.37;54.02;101684.03;5020646;28;45477;-45
2023/07/09 09:47:01;;;;;;;;;11.33;8.33;;;;;26.35;54.24;101691.53;5002971;28;45447;-45
2023/07/09 09:49:27;;;;;;;;;10.33;9.67;;;;;26.28;53.92;101690.44;5011330;28;72229;-43
2023/07/09 09:51:56;;;;;;;;;11.67;9.00;;;;;26.30;54.18;101691.16;5016195;28;45454;-48
2023/07/09 09:54:27;;;;;;;;;9.00;8.00;;;;;26.37;54.24;101692.22;5015658;28;45506;-45
2023/07/09 09:56:53;;;;;;;;;9.00;9.00;;;;;26.47;53.87;101681.22;5020410;28;45434;-45
2023/07/09 09:59:33;;;;;;;;;9.00;9.00;;;;;26.57;54.01;101677.34;5015446;28;45440;-42
2023/07/09 10:02:01;;;;;;;;;11.00;10.00;;;;;26.65;54.34;101668.38;5016792;28;45509;-44
2023/07/09 10:04:27;;;;;;;;;9.33;8.67;;;;;26.67;54.59;101658.13;5001999;28;45381;-43
2023/07/09 10:06:56;;;;;;;;;9.00;8.33;;;;;26.66;54.11;101655.56;5018847;28;45550;-44
2023/07/09 10:09:46;;;;;;;;;8.67;7.67;;;;;26.63;54.12;101661.38;5019677;28;45639;-44
2023/07/09 10:12:49;;;;;;;;;12.00;10.33;;;;;26.63;53.78;101653.19;5009286;28;45356;-43
2023/07/09 10:15:43;;;;;;;;;9.67;9.33;;;;;26.69;54.71;101667.03;5012140;28;45522;-43
2023/07/09 10:18:30;;;;;;;;;10.50;10.50;;;;;26.75;54.87;101662.81;4994554;28;45804;-44
2023/07/09 10:21:05;;;;;;;;;11.00;9.00;;;;;26.77;54.58;101649.88;5019614;28;45507;-45
2023/07/09 10:23:48;;;;;;;;;9.00;9.00;;;;;26.80;55.08;101632.31;5008660;28;45375;-45
2023/07/09 10:26:19;;;;;;;;;13.00;9.33;;;;;26.82;55.07;101633.03;5021233;28;45464;-44
2023/07/09 10:29:00;;;;;;;;;10.00;10.00;;;;;26.82;55.89;101644.78;5014341;28;48486;-45
2023/07/09 10:31:33;;;;;;;;;12.33;12.00;;;;;26.84;55.14;101648.22;5004369;28;46265;-43
2023/07/09 10:34:18;;;;;;;;;11.33;11.33;;;;;26.92;55.64;101650.09;5018308;28;45773;-43
2023/07/09 10:37:27;;;;;;;;;12.67;11.00;;;;;27.13;55.29;101657.00;5013835;28;45495;-45
2023/07/09 10:39:57;;;;;;;;;13.33;12.33;;;;;27.53;55.12;101661.78;5025359;28;45395;-47
2023/07/09 10:42:27;;;;;;;;;14.00;13.67;;;;;27.96;54.40;101661.59;4999839;28;47737;-43
2023/07/09 10:45:02;;;;;;;;;11.00;10.33;;;;;28.27;53.73;101651.91;5010555;28;45790;-50
2023/07/09 10:47:41;;;;;;;;;11.00;11.00;;;;;28.53;53.14;101652.50;5007772;28;45340;-46
2023/07/09 10:50:13;;;;;;;;;9.67;8.00;;;;;28.78;52.19;101657.09;5014407;28;45436;-48
2023/07/09 10:52:41;;;;;;;;;13.00;13.00;;;;;29.20;52.16;101670.44;4999617;28;46132;-44
2023/07/09 10:55:40;;;;;;;;;11.00;11.00;;;;;29.94;50.03;101660.88;5006866;28;45610;-44
2023/07/09 10:58:28;;;;;;;;;13.33;12.33;;;;;30.17;49.09;101647.13;5023564;28;45293;-45
2023/07/09 11:00:54;;;;;;;;;10.25;9.00;;;;;31.68;47.95;101657.00;5019070;28;44830;-45
2023/07/09 11:03:25;;;;;;;;;11.00;10.67;;;;;33.63;45.24;101662.59;5016974;28;45393;-43
2023/07/09 11:05:51;;;;;;;;;10.00;8.00;;;;;35.21;41.70;101654.50;5014444;28;45787;-44
2023/07/09 11:08:24;;;;;;;;;7.67;6.33;;;;;36.45;39.96;101660.63;5016103;28;45633;-43
2023/07/09 11:10:56;;;;;;;;;8.00;6.25;;;;;37.51;37.99;101661.25;4986138;28;45483;-45
2023/07/09 11:13:39;;;;;;;;;8.00;8.00;;;;;38.36;37.05;101664.75;5031849;28;46352;-45
2023/07/09 11:16:06;;;;;;;;;8.75;7.75;;;;;38.17;34.50;101652.91;5017153;28;45800;-44
2023/07/09 11:18:34;;;;;;;;;8.00;6.50;;;;;37.68;35.43;101641.13;5014205;28;45598;-45
2023/07/09 11:21:04;;;;;;;;;5.67;5.67;;;;;37.46;34.77;101633.38;5012418;28;45511;-45
2023/07/09 11:23:45;;;;;;;;;8.50;8.50;;;;;37.20;34.80;101612.41;5014134;28;45998;-43